createdAt,value
2022-08-09T00:04:03.550Z,16.24
2022-08-09T00:08:52.027Z,16.28
2022-08-09T00:13:49.782Z,16.29
2022-08-09T00:18:46.182Z,16.21
2022-08-09T00:23:54.962Z,16.15
2022-08-09T00:28:55.137Z,16.09
2022-08-09T00:33:53.201Z,16.03
2022-08-09T00:38:50.592Z,16.00
2022-08-09T00:44:15.500Z,15.94
2022-08-09T00:49:03.977Z,15.91
2022-08-09T00:54:01.896Z,15.85
2022-08-09T00:58:59.172Z,15.80
2022-08-09T01:04:04.789Z,15.76
2022-08-09T01:09:13.458Z,15.68
2022-08-09T01:14:23.387Z,15.67
2022-08-09T01:19:42.932Z,15.63
2022-08-09T01:25:02.756Z,15.54
2022-08-09T01:30:04.528Z,15.50
2022-08-09T01:35:06.961Z,15.45
2022-08-09T01:40:23.311Z,15.46
2022-08-09T01:45:26.533Z,15.43
2022-08-09T01:50:36.676Z,15.38
2022-08-09T01:55:35.142Z,15.28
2022-08-09T02:00:36.374Z,15.20
2022-08-09T02:05:35.567Z,15.11
2022-08-09T02:10:39.174Z,15.05
2022-08-09T02:15:50.632Z,14.99
2022-08-09T02:20:55.107Z,14.92
2022-08-09T02:25:57.661Z,14.85
2022-08-09T02:31:02.772Z,14.78
2022-08-09T02:36:05.652Z,14.67
2022-08-09T02:41:10.561Z,14.61
2022-08-09T02:46:10.404Z,14.56
2022-08-09T02:51:10.304Z,14.54
2022-08-09T02:56:08.958Z,14.48
2022-08-09T03:01:07.854Z,14.46
2022-08-09T03:06:06.343Z,14.47
2022-08-09T03:11:04.459Z,14.46
2022-08-09T03:16:06.057Z,14.44
2022-08-09T03:21:06.221Z,14.45
2022-08-09T03:26:05.274Z,14.51
2022-08-09T03:31:10.046Z,14.52
2022-08-09T03:36:17.690Z,14.52
2022-08-09T03:41:18.485Z,14.48
2022-08-09T03:46:27.134Z,14.45
2022-08-09T03:51:55.509Z,14.42
2022-08-09T03:56:44.827Z,14.33
2022-08-09T04:01:44.287Z,14.36
2022-08-09T04:06:44.102Z,14.31
2022-08-09T04:12:12.050Z,14.28
2022-08-09T04:17:27.105Z,14.27
2022-08-09T04:22:28.009Z,14.23
2022-08-09T04:27:24.488Z,14.21
2022-08-09T04:32:29.185Z,14.19
2022-08-09T04:37:45.669Z,14.25
2022-08-09T04:42:43.093Z,14.35
2022-08-09T04:47:45.034Z,14.44
2022-08-09T04:52:55.043Z,14.48
2022-08-09T04:57:58.541Z,14.53
2022-08-09T05:02:58.697Z,14.57
2022-08-09T05:08:09.376Z,14.57
2022-08-09T05:13:10.900Z,14.58
2022-08-09T05:18:39.147Z,14.60
2022-08-09T05:23:57.698Z,14.74
2022-08-09T05:28:41.070Z,14.85
2022-08-09T05:33:38.847Z,14.87
2022-08-09T05:38:39.311Z,14.95
2022-08-09T05:43:35.672Z,15.13
2022-08-09T05:48:33.581Z,15.20
2022-08-09T05:53:32.051Z,15.49
2022-08-09T05:58:30.352Z,15.84
2022-08-09T06:03:34.870Z,16.15
2022-08-09T06:08:40.168Z,16.02
2022-08-09T06:13:40.433Z,16.40
2022-08-09T06:18:37.712Z,16.77
2022-08-09T06:23:58.536Z,16.98
2022-08-09T06:28:59.388Z,17.07
2022-08-09T06:33:57.526Z,17.38
2022-08-09T06:38:54.468Z,17.60
2022-08-09T06:43:53.357Z,17.66
2022-08-09T06:48:49.745Z,17.71
2022-08-09T06:53:55.179Z,18.21
2022-08-09T07:00:50.758Z,18.64
2022-08-09T07:04:07.903Z,18.59
2022-08-09T07:09:06.904Z,18.39
2022-08-09T07:14:26.586Z,18.67
2022-08-09T07:19:23.878Z,18.90
2022-08-09T07:24:20.305Z,19.77
2022-08-09T07:29:17.064Z,20.08
2022-08-09T07:34:21.065Z,19.89
2022-08-09T07:39:20.488Z,20.07
2022-08-09T07:44:51.930Z,20.38
2022-08-09T07:50:04.893Z,20.28
2022-08-09T07:55:09.651Z,20.66
2022-08-09T08:00:08.904Z,20.87
2022-08-09T08:05:17.951Z,20.33
2022-08-09T08:10:15.420Z,20.88
2022-08-09T08:15:18.243Z,20.87
2022-08-09T08:20:29.196Z,21.04
2022-08-09T08:25:44.459Z,21.68
2022-08-09T08:30:44.601Z,21.41
2022-08-09T08:35:58.208Z,22.25
2022-08-09T08:40:57.836Z,21.70
2022-08-09T08:46:10.022Z,22.05
2022-08-09T08:51:13.707Z,22.39
2022-08-09T08:56:14.865Z,22.02
2022-08-09T09:01:24.887Z,22.63
2022-08-09T09:06:21.830Z,22.97
2022-08-09T09:11:19.801Z,22.83
2022-08-09T09:16:16.510Z,22.97
2022-08-09T09:21:13.515Z,23.21
2022-08-09T09:26:12.636Z,23.66
2022-08-09T09:31:17.621Z,23.56
2022-08-09T09:36:38.591Z,23.45
2022-08-09T09:41:49.469Z,24.08
2022-08-09T09:46:52.192Z,24.23
2022-08-09T09:51:51.346Z,23.43
2022-08-09T09:58:00.656Z,23.40
2022-08-09T10:02:06.502Z,23.97
2022-08-09T10:07:09.967Z,24.29
2022-08-09T10:12:14.335Z,23.81
2022-08-09T10:17:40.389Z,24.10
2022-08-09T10:22:39.452Z,24.04
2022-08-09T10:27:44.923Z,23.59
2022-08-09T10:32:52.075Z,24.21
2022-08-09T10:37:49.037Z,23.81
2022-08-09T10:42:48.195Z,24.50
2022-08-09T10:48:26.292Z,24.02
2022-08-09T10:53:46.772Z,24.22
2022-08-09T10:58:55.486Z,24.62
2022-08-09T11:04:28.158Z,24.41
2022-08-09T11:09:38.802Z,24.20
2022-08-09T11:14:51.283Z,24.21
2022-08-09T11:20:22.259Z,24.78
2022-08-09T11:25:47.396Z,25.03
2022-08-09T11:30:48.020Z,25.39
2022-08-09T11:36:01.154Z,25.12
2022-08-09T11:40:57.747Z,24.81
2022-08-09T11:46:02.181Z,24.98
2022-08-09T11:52:49.293Z,25.10
2022-08-09T11:56:14.881Z,25.19
2022-08-09T12:01:37.663Z,25.00
2022-08-09T12:06:35.680Z,24.62
2022-08-09T12:11:44.554Z,25.40
2022-08-09T12:16:48.776Z,25.85
2022-08-09T12:21:52.074Z,25.06
2022-08-09T12:29:15.302Z,25.81
2022-08-09T12:32:11.527Z,26.25
2022-08-09T12:37:23.661Z,26.51
2022-08-09T12:42:25.861Z,26.91
2022-08-09T12:47:23.220Z,25.98
2022-08-09T12:52:19.713Z,25.77
2022-08-09T12:57:39.359Z,26.15
2022-08-09T13:03:00.986Z,26.18
2022-08-09T13:08:14.526Z,26.17
2022-08-09T13:13:11.641Z,26.07
2022-08-09T13:18:09.815Z,26.06
2022-08-09T13:24:07.034Z,26.34
2022-08-09T13:28:35.918Z,25.63
2022-08-09T13:33:52.944Z,26.28
2022-08-09T13:38:55.915Z,25.99
2022-08-09T13:43:54.643Z,25.67
2022-08-09T13:48:50.986Z,26.17
2022-08-09T13:53:47.326Z,27.07
2022-08-09T13:58:45.520Z,26.49
2022-08-09T14:04:05.455Z,25.44
2022-08-09T14:08:59.327Z,26.06
2022-08-09T14:14:22.742Z,26.00
2022-08-09T14:19:12.100Z,26.49
2022-08-09T14:24:21.914Z,26.10
2022-08-09T14:30:04.073Z,26.11
2022-08-09T14:34:36.085Z,25.88
2022-08-09T14:39:45.917Z,26.24
2022-08-09T14:44:48.996Z,26.64
2022-08-09T14:50:02.211Z,26.68
2022-08-09T14:54:59.433Z,26.31
2022-08-09T14:59:55.871Z,25.91
2022-08-09T15:04:52.227Z,26.23
2022-08-09T15:10:07.430Z,26.84
2022-08-09T15:15:08.600Z,26.75
2022-08-09T15:20:06.688Z,27.15
2022-08-09T15:25:08.694Z,26.86
2022-08-09T15:30:56.075Z,26.29
2022-08-09T15:35:43.925Z,26.39
2022-08-09T15:40:43.885Z,26.68
2022-08-09T15:45:51.681Z,26.20
2022-08-09T15:50:58.330Z,26.34
2022-08-09T15:56:20.917Z,26.40
2022-08-09T16:01:12.238Z,26.68
2022-08-09T16:06:27.230Z,26.30
2022-08-09T16:11:25.923Z,26.14
2022-08-09T16:16:26.098Z,26.38
2022-08-09T16:21:25.185Z,27.12
2022-08-09T16:26:34.471Z,26.46
2022-08-09T16:31:38.126Z,26.54
2022-08-09T16:36:49.901Z,26.50
2022-08-09T16:42:03.934Z,26.77
2022-08-09T16:47:03.993Z,27.45
2022-08-09T16:52:17.613Z,27.94
2022-08-09T16:57:15.886Z,27.56
2022-08-09T17:02:23.291Z,30.30
2022-08-09T17:08:46.139Z,30.28
2022-08-09T17:12:38.216Z,30.69
2022-08-09T17:17:51.103Z,32.45
2022-08-09T17:22:52.285Z,34.94
2022-08-09T17:27:54.489Z,35.29
2022-08-09T17:32:51.404Z,34.55
2022-08-09T17:38:14.486Z,34.08
2022-08-09T17:43:32.671Z,35.35
2022-08-09T17:48:28.414Z,33.12
2022-08-09T17:53:25.872Z,34.58
2022-08-09T17:58:22.352Z,32.53
2022-08-09T18:03:24.335Z,32.42
2022-08-09T18:08:21.900Z,31.65
2022-08-09T18:13:53.653Z,30.40
2022-08-09T18:18:42.728Z,28.92
2022-08-09T18:24:11.013Z,28.59
2022-08-09T18:30:39.327Z,29.34
2022-08-09T18:34:12.514Z,27.72
2022-08-09T18:39:15.969Z,25.16
2022-08-09T18:44:13.949Z,24.50
2022-08-09T18:49:10.363Z,23.63
2022-08-09T18:54:16.441Z,23.10
2022-08-09T18:59:16.763Z,22.80
2022-08-09T19:04:13.131Z,22.63
2022-08-09T19:09:13.578Z,22.34
2022-08-09T19:14:29.163Z,22.09
2022-08-09T19:19:28.186Z,21.91
2022-08-09T19:24:39.448Z,21.72
2022-08-09T19:29:59.853Z,21.56
2022-08-09T19:34:57.799Z,21.49
2022-08-09T19:40:04.090Z,21.40
2022-08-09T19:45:01.678Z,21.24
2022-08-09T19:50:06.932Z,21.28
2022-08-09T19:55:14.939Z,21.20
2022-08-09T20:00:12.807Z,21.04
2022-08-09T20:05:14.889Z,21.03
2022-08-09T20:10:17.758Z,20.90
2022-08-09T20:16:35.231Z,20.69
2022-08-09T20:20:35.523Z,20.85
2022-08-09T20:25:52.441Z,20.77
2022-08-09T20:30:49.634Z,20.54
2022-08-09T20:35:46.050Z,20.50
2022-08-09T20:40:49.126Z,20.45
2022-08-09T20:46:00.270Z,20.43
2022-08-09T20:51:00.970Z,20.28
2022-08-09T20:56:02.358Z,20.22
2022-08-09T21:01:13.706Z,20.15
2022-08-09T21:06:16.555Z,20.14
2022-08-09T21:16:31.228Z,19.97
2022-08-09T21:21:42.124Z,19.87
2022-08-09T21:26:44.234Z,19.79
2022-08-09T21:31:49.269Z,19.65
2022-08-09T21:36:55.767Z,19.48
2022-08-09T21:42:03.463Z,19.46
2022-08-09T21:47:04.616Z,19.42
2022-08-09T21:52:01.010Z,19.29
2022-08-09T21:56:57.978Z,19.27
2022-08-09T22:02:01.334Z,19.12
2022-08-09T22:07:02.169Z,19.02
2022-08-09T22:12:18.165Z,18.90
2022-08-09T22:17:15.623Z,18.78
2022-08-09T22:22:14.227Z,18.70
2022-08-09T22:27:13.009Z,18.65
2022-08-09T22:32:29.398Z,18.59
2022-08-09T22:37:25.699Z,18.55
2022-08-09T22:42:23.879Z,18.48
2022-08-09T22:48:11.134Z,18.41
2022-08-09T22:52:36.656Z,18.40
2022-08-09T22:57:35.480Z,18.31
2022-08-09T23:02:32.406Z,18.30
2022-08-09T23:08:27.618Z,18.28
2022-08-09T23:13:04.415Z,18.08
2022-08-09T23:18:09.183Z,18.00
2022-08-09T23:23:05.577Z,17.91
2022-08-09T23:28:15.484Z,17.80
2022-08-09T23:33:12.434Z,17.72
2022-08-09T23:38:09.640Z,17.62
2022-08-09T23:43:05.994Z,17.61
2022-08-09T23:48:06.729Z,17.59
2022-08-09T23:53:05.482Z,17.46
2022-08-09T23:58:10.484Z,17.27
